• Join FlightAware (Why Join?)
  • Login
  • US Flag 
07:14AM EDT


 

Airport Tracker/Info


-or-


 

Live Flight TrackerFlight Track Log ✈ TRS719 ✈ 22-Apr-2013 ✈ MMSD / SJD - KDEN

Flight Track Log - Related Links

Times and Time Zones

All times are in EDT time to prevent confusion due to time zone crossing. See the TRS719 flight status page for this flight to view local times or setup timezone preferences in your user account.

Time Position Orientation Groundspeed Altitude Reporting Facility
EDT Latitude Longitude Course Direction KTS MPH feet Rate Location/Type
07:39PM 30.5761 -107.5372 North 466 536 39,000  Level Albuquerque Center
07:40PM 30.7050 -107.5253 North 465 535 39,000  Level Albuquerque Center
07:41PM 30.8336 -107.5150 North 464 534 39,000  Level Albuquerque Center
07:42PM 30.9619 -107.5061 North 462 532 39,000  Level Albuquerque Center
07:43PM 31.0894 -107.4942 North 459 528 39,000  Level Albuquerque Center
07:45PM 31.2153 -107.4822 North 455 524 39,000  Level Albuquerque Center
07:46PM 31.3667 -107.4672 North 454 522 39,000  Level Albuquerque Center
07:47PM 31.4931 -107.4550 North 455 524 39,000  Level Albuquerque Center
07:48PM 31.6172 -107.4575 359° North 449 517 39,000  Level Albuquerque Center
07:49PM 31.7381 -107.4819 350° North 440 506 39,000  Level Albuquerque Center
07:50PM 31.8481 -107.5031 351° North 439 505 39,000  Level Albuquerque Center
07:51PM 31.9850 -107.4981 North 450 518 39,000  Level Albuquerque Center
07:52PM 32.1119 -107.4781 North 458 527 39,000  Level Albuquerque Center
07:53PM 32.2467 -107.4556 North 456 525 39,000  Level Albuquerque Center
07:54PM 32.3689 -107.4367 North 450 518 39,000  Level Albuquerque Center
07:55PM 32.4928 -107.4156 North 452 520 39,000  Level Albuquerque Center
07:56PM 32.6192 -107.3939 North 457 526 39,000  Level Albuquerque Center
07:57PM 32.7728 -107.3675 North 460 529 39,000  Level Albuquerque Center
07:58PM 32.8994 -107.3461 North 458 527 39,000  Level Albuquerque Center
07:59PM 33.0261 -107.3250 North 457 526 39,000  Level Albuquerque Center
08:00PM 33.1536 -107.3025 North 460 529 39,000  Level Albuquerque Center
08:01PM 33.2792 -107.2814 North 457 526 39,000  Level Albuquerque Center
08:02PM 33.4042 -107.2497 12° North 458 527 39,000  Level Albuquerque Center
08:03PM 33.5278 -107.2153 13° North 457 526 39,000  Level Albuquerque Center
08:04PM 33.6522 -107.1844 12° North 456 525 39,000  Level Albuquerque Center
08:05PM 33.7750 -107.1547 11° North 452 520 39,000  Level Albuquerque Center
08:06PM 33.9225 -107.1161 12° North 452 520 39,000  Level Albuquerque Center
08:07PM 34.0472 -107.0814 13° North 457 526 39,000  Level Albuquerque Center
08:08PM 34.1717 -107.0489 12° North 457 526 39,000  Level Albuquerque Center
08:09PM 34.2953 -107.0183 12° North 455 524 39,000  Level Albuquerque Center
08:10PM 34.4319 -106.9811 13° North 454 522 39,000  Level Albuquerque Center
08:11PM 34.5561 -106.9483 12° North 454 522 39,000  Level Albuquerque Center
08:12PM 34.6778 -106.9153 13° North 451 519 39,000  Level Albuquerque Center
08:13PM 34.8003 -106.8817 13° North 450 518 39,000  Level Albuquerque Center
08:14PM 34.9436 -106.8444 12° North 455 524 39,000  Level Albuquerque Center
08:15PM 35.0614 -106.8158 11° North 453 521 39,000  Level Albuquerque Center
08:16PM 35.1800 -106.8033 North 448 516 39,000  Level Albuquerque Center
08:17PM 35.3169 -106.7925 North 443 510 39,000  Level Albuquerque Center
08:18PM 35.4300 -106.7817 North 441 507 39,000  Level Albuquerque Center
08:19PM 35.5506 -106.7703 North 437 503 39,000  Level Albuquerque Center
08:20PM 35.6828 -106.7592 North 432 497 39,000  Level Albuquerque Center
08:21PM 35.8175 -106.7461 North 434 499 39,000  Level Albuquerque Center
08:22PM 35.9356 -106.7367 North 434 499 39,000  Level Albuquerque Center
08:24PM 36.0567 -106.7244 North 435 501 39,000  Level Albuquerque Center
08:25PM 36.1836 -106.7142 North 434 499 39,000 -60 Level Albuquerque Center
08:26PM 36.2981 -106.7028 North 432 497 38,900 -540 Descending Albuquerque Center
08:27PM 36.4306 -106.6906 North 429 494 38,000 -720 Descending Albuquerque Center
08:27PM 36.4681 -106.6861 North 425 489 38,000 -180 Level Denver Center
08:28PM 36.5822 -106.6750 North 429 494 37,800 -540 Descending Denver Center
08:29PM 36.7167 -106.6628 North 432 497 37,000 -420 Descending Denver Center
08:30PM 36.8306 -106.6494 North 431 496 37,000  Level Denver Center
08:31PM 36.9636 -106.6078 14° North 441 507 37,000  Level Denver Center
08:32PM 37.0792 -106.5747 13° North 440 506 37,000  Level Denver Center
08:33PM 37.2319 -106.5283 14° North 441 507 37,000  Level Denver Center
08:34PM 37.3444 -106.4925 14° North 436 502 37,000  Level Denver Center
08:35PM 37.4806 -106.4519 13° North 443 510 37,000  Level Denver Center
08:36PM 37.5944 -106.4172 14° North 442 509 37,000  Level Denver Center
08:37PM 37.7297 -106.3753 14° North 446 513 37,000  Level Denver Center
08:38PM 37.8422 -106.3408 14° North 443 510 37,000  Level Denver Center
08:39PM 37.9744 -106.3003 14° North 438 504 37,000  Level Denver Center
08:40PM 38.0897 -106.2625 14° North 434 499 37,000 -480 Level Denver Center
08:42PM 38.2089 -106.1933 25° Northeast 463 533 36,100 -1,020 Descending Denver Center
08:43PM 38.3356 -106.1211 24° Northeast 474 545 35,000 -1,020 Descending Denver Center
08:44PM 38.4519 -106.0558 24° Northeast 476 548 34,100 -1,080 Descending Denver Center
08:45PM 38.5847 -105.9806 24° Northeast 469 540 32,800 -1,620 Descending Denver Center
08:46PM 38.6906 -105.9206 24° Northeast 461 531 30,800 -2,100 Descending Denver Center
08:47PM 38.8031 -105.8572 24° Northeast 442 509 28,600 -2,340 Descending Denver Center
08:48PM 38.9125 -105.7439 39° Northeast 461 531 26,100 -2,280 Descending Denver Center
08:49PM 38.9972 -105.6369 44° Northeast 449 517 24,000 -2,160 Descending Denver Center
08:50PM 39.0947 -105.5119 45° Northeast 442 509 21,700 -2,220 Descending Denver Center
08:51PM 39.1783 -105.4039 45° Northeast 442 509 19,500 -1,680 Descending Denver Center
08:52PM 39.2575 -105.3011 45° Northeast 404 465 18,300 -1,500 Descending Denver Center
08:53PM 39.2856 -105.1558 76° East 380 437 16,500 -1,500 Descending Denver Center
08:54PM 39.3256 -105.0336 67° East 367 422 15,300 -1,260 Descending Denver Center
08:55PM 39.3792 -104.9142 60° Northeast 356 410 14,000 -1,140 Descending Denver Center
08:56PM 39.4250 -104.8092 61° Northeast 341 392 13,000 -780 Descending Denver Center
08:57PM 39.4661 -104.7172 60° Northeast 299 344 12,400 -780 Descending Denver Center
08:58PM 39.5267 -104.6636 34° Northeast 256 295 11,400 -1,020 Descending Denver Center
08:59PM 39.5844 -104.6647 359° North 210 242 10,400 -1,020 Descending Denver Center
09:00PM 39.6339 -104.6631 North 180 207 9,400 -1,080 Descending Denver Center
09:01PM 39.6914 -104.6622 North 187 215 8,200 -1,080 Descending Denver Center
09:02PM 39.7411 -104.6619 360° North 180 207 7,200 -840 Descending Denver Center
09:03PM 39.7783 -104.6611 North 136 157 6,500 -780 Descending Denver Center
09:04PM 39.8178 -104.6611 360° North 131 151 5,700 -840 Descending Denver Center
09:06PM 39.8500 -104.6667 North  Level FlightAware Approximate
09:13PM 39.8617 -104.6732 North  Level Estimated